sensor_id;sensor_type;location;lat;lon;timestamp;temperature;humidity
20829;DHT22;10575;50.124;8.582;2023-11-19T00:00:34;8.80;99.90
20829;DHT22;10575;50.124;8.582;2023-11-19T00:03:03;8.70;99.90
20829;DHT22;10575;50.124;8.582;2023-11-19T00:05:28;8.60;99.90
20829;DHT22;10575;50.124;8.582;2023-11-19T00:07:54;8.70;99.90
20829;DHT22;10575;50.124;8.582;2023-11-19T00:10:20;8.80;99.90
20829;DHT22;10575;50.124;8.582;2023-11-19T00:12:47;8.70;99.90
20829;DHT22;10575;50.124;8.582;2023-11-19T00:15:14;8.80;99.90
20829;DHT22;10575;50.124;8.582;2023-11-19T00:17:44;8.80;99.90
20829;DHT22;10575;50.124;8.582;2023-11-19T00:20:14;8.70;99.90
20829;DHT22;10575;50.124;8.582;2023-11-19T00:22:41;8.70;99.90
20829;DHT22;10575;50.124;8.582;2023-11-19T00:25:08;8.80;99.90
20829;DHT22;10575;50.124;8.582;2023-11-19T00:27:33;8.80;99.90
20829;DHT22;10575;50.124;8.582;2023-11-19T00:29:59;8.80;99.90
20829;DHT22;10575;50.124;8.582;2023-11-19T00:32:24;8.70;99.90
20829;DHT22;10575;50.124;8.582;2023-11-19T00:34:50;8.70;99.90
20829;DHT22;10575;50.124;8.582;2023-11-19T00:37:16;8.80;99.90
20829;DHT22;10575;50.124;8.582;2023-11-19T00:39:42;8.70;99.90
20829;DHT22;10575;50.124;8.582;2023-11-19T00:42:09;8.80;99.90
20829;DHT22;10575;50.124;8.582;2023-11-19T00:44:35;8.80;99.90
20829;DHT22;10575;50.124;8.582;2023-11-19T00:47:01;8.80;99.90
20829;DHT22;10575;50.124;8.582;2023-11-19T00:49:27;8.80;99.90
20829;DHT22;10575;50.124;8.582;2023-11-19T00:51:52;8.80;99.90
20829;DHT22;10575;50.124;8.582;2023-11-19T00:54:20;8.80;99.90
20829;DHT22;10575;50.124;8.582;2023-11-19T00:56:46;8.80;99.90
20829;DHT22;10575;50.124;8.582;2023-11-19T00:59:11;8.90;99.90
20829;DHT22;10575;50.124;8.582;2023-11-19T01:01:37;9.00;99.90
20829;DHT22;10575;50.124;8.582;2023-11-19T01:04:02;9.00;99.90
20829;DHT22;10575;50.124;8.582;2023-11-19T01:08:54;9.00;99.90
20829;DHT22;10575;50.124;8.582;2023-11-19T01:11:22;9.00;99.90
20829;DHT22;10575;50.124;8.582;2023-11-19T01:13:48;9.00;99.90
20829;DHT22;10575;50.124;8.582;2023-11-19T01:16:14;9.00;99.90
20829;DHT22;10575;50.124;8.582;2023-11-19T01:18:39;9.00;99.90
20829;DHT22;10575;50.124;8.582;2023-11-19T01:21:05;9.00;99.90
20829;DHT22;10575;50.124;8.582;2023-11-19T01:23:33;8.90;99.90
20829;DHT22;10575;50.124;8.582;2023-11-19T01:25:59;9.00;99.90
20829;DHT22;10575;50.124;8.582;2023-11-19T01:28:25;8.90;99.90
20829;DHT22;10575;50.124;8.582;2023-11-19T01:30:50;9.00;99.90
20829;DHT22;10575;50.124;8.582;2023-11-19T01:33:16;9.00;99.90
20829;DHT22;10575;50.124;8.582;2023-11-19T01:35:42;9.00;99.90
20829;DHT22;10575;50.124;8.582;2023-11-19T01:38:07;9.00;99.90
20829;DHT22;10575;50.124;8.582;2023-11-19T01:40:36;9.00;99.90
20829;DHT22;10575;50.124;8.582;2023-11-19T01:43:03;9.10;99.90
20829;DHT22;10575;50.124;8.582;2023-11-19T01:45:30;9.00;99.90
20829;DHT22;10575;50.124;8.582;2023-11-19T01:47:56;9.00;99.90
20829;DHT22;10575;50.124;8.582;2023-11-19T01:50:23;9.00;99.90
20829;DHT22;10575;50.124;8.582;2023-11-19T01:52:52;9.00;99.90
20829;DHT22;10575;50.124;8.582;2023-11-19T01:55:18;8.90;99.90
20829;DHT22;10575;50.124;8.582;2023-11-19T01:57:44;9.00;99.90
20829;DHT22;10575;50.124;8.582;2023-11-19T02:00:10;9.00;99.90
20829;DHT22;10575;50.124;8.582;2023-11-19T02:02:37;9.00;99.90
20829;DHT22;10575;50.124;8.582;2023-11-19T02:05:05;9.00;99.90
20829;DHT22;10575;50.124;8.582;2023-11-19T02:07:31;9.00;99.90
20829;DHT22;10575;50.124;8.582;2023-11-19T02:09:57;9.00;99.90
20829;DHT22;10575;50.124;8.582;2023-11-19T02:12:26;9.00;99.90
20829;DHT22;10575;50.124;8.582;2023-11-19T02:14:53;9.00;99.90
20829;DHT22;10575;50.124;8.582;2023-11-19T02:17:31;9.00;99.90
20829;DHT22;10575;50.124;8.582;2023-11-19T02:19:57;9.00;99.90
20829;DHT22;10575;50.124;8.582;2023-11-19T02:22:23;9.10;99.90
20829;DHT22;10575;50.124;8.582;2023-11-19T02:24:51;9.10;99.90
20829;DHT22;10575;50.124;8.582;2023-11-19T02:27:30;9.10;99.90
20829;DHT22;10575;50.124;8.582;2023-11-19T02:29:56;9.10;99.90
20829;DHT22;10575;50.124;8.582;2023-11-19T02:32:22;9.00;99.90
20829;DHT22;10575;50.124;8.582;2023-11-19T02:34:47;9.00;99.90
20829;DHT22;10575;50.124;8.582;2023-11-19T02:37:13;9.00;99.90
20829;DHT22;10575;50.124;8.582;2023-11-19T02:39:40;9.10;99.90
20829;DHT22;10575;50.124;8.582;2023-11-19T02:42:07;9.10;99.90
20829;DHT22;10575;50.124;8.582;2023-11-19T02:44:33;9.20;99.90
20829;DHT22;10575;50.124;8.582;2023-11-19T02:46:59;9.10;99.90
20829;DHT22;10575;50.124;8.582;2023-11-19T02:49:25;9.10;99.90
20829;DHT22;10575;50.124;8.582;2023-11-19T02:51:50;9.10;99.90
20829;DHT22;10575;50.124;8.582;2023-11-19T02:54:16;9.20;99.90
20829;DHT22;10575;50.124;8.582;2023-11-19T02:56:44;9.20;99.90
20829;DHT22;10575;50.124;8.582;2023-11-19T02:59:13;9.10;99.90
20829;DHT22;10575;50.124;8.582;2023-11-19T03:01:52;9.10;99.90
20829;DHT22;10575;50.124;8.582;2023-11-19T03:04:19;9.20;99.90
20829;DHT22;10575;50.124;8.582;2023-11-19T03:06:45;9.30;99.90
20829;DHT22;10575;50.124;8.582;2023-11-19T03:09:11;9.30;99.90
20829;DHT22;10575;50.124;8.582;2023-11-19T03:11:37;9.30;99.90
20829;DHT22;10575;50.124;8.582;2023-11-19T03:14:02;9.50;99.90
20829;DHT22;10575;50.124;8.582;2023-11-19T03:16:31;9.50;99.90
20829;DHT22;10575;50.124;8.582;2023-11-19T03:18:56;9.50;99.90
20829;DHT22;10575;50.124;8.582;2023-11-19T03:21:31;9.50;99.90
20829;DHT22;10575;50.124;8.582;2023-11-19T03:23:58;9.50;99.90
20829;DHT22;10575;50.124;8.582;2023-11-19T03:26:27;9.50;99.90
20829;DHT22;10575;50.124;8.582;2023-11-19T03:28:53;9.50;99.90
20829;DHT22;10575;50.124;8.582;2023-11-19T03:31:19;9.50;99.90
20829;DHT22;10575;50.124;8.582;2023-11-19T03:33:45;9.50;99.90
20829;DHT22;10575;50.124;8.582;2023-11-19T03:36:11;9.50;99.90
20829;DHT22;10575;50.124;8.582;2023-11-19T03:38:38;9.40;99.90
20829;DHT22;10575;50.124;8.582;2023-11-19T03:41:11;9.40;99.90
20829;DHT22;10575;50.124;8.582;2023-11-19T03:43:37;9.50;99.90
20829;DHT22;10575;50.124;8.582;2023-11-19T03:46:02;9.50;99.90
20829;DHT22;10575;50.124;8.582;2023-11-19T03:48:28;9.50;99.90
20829;DHT22;10575;50.124;8.582;2023-11-19T03:50:53;9.60;99.90
20829;DHT22;10575;50.124;8.582;2023-11-19T03:53:19;9.50;99.90
20829;DHT22;10575;50.124;8.582;2023-11-19T03:55:44;9.60;99.90
20829;DHT22;10575;50.124;8.582;2023-11-19T03:58:10;9.50;99.90
20829;DHT22;10575;50.124;8.582;2023-11-19T04:00:35;9.50;99.90
20829;DHT22;10575;50.124;8.582;2023-11-19T04:03:01;9.60;99.90
20829;DHT22;10575;50.124;8.582;2023-11-19T04:05:27;9.60;99.90
20829;DHT22;10575;50.124;8.582;2023-11-19T04:07:53;9.60;99.90
20829;DHT22;10575;50.124;8.582;2023-11-19T04:10:18;9.70;99.90
20829;DHT22;10575;50.124;8.582;2023-11-19T04:12:47;9.70;99.90
20829;DHT22;10575;50.124;8.582;2023-11-19T04:15:14;9.70;99.90
20829;DHT22;10575;50.124;8.582;2023-11-19T04:17:39;9.60;99.90
20829;DHT22;10575;50.124;8.582;2023-11-19T04:20:05;9.60;99.90
20829;DHT22;10575;50.124;8.582;2023-11-19T04:22:31;9.60;99.90
20829;DHT22;10575;50.124;8.582;2023-11-19T04:24:59;9.70;99.90
20829;DHT22;10575;50.124;8.582;2023-11-19T04:27:24;9.70;99.90
20829;DHT22;10575;50.124;8.582;2023-11-19T04:29:50;9.70;99.90
20829;DHT22;10575;50.124;8.582;2023-11-19T04:32:16;9.60;99.90
20829;DHT22;10575;50.124;8.582;2023-11-19T04:34:41;9.70;99.90
20829;DHT22;10575;50.124;8.582;2023-11-19T04:37:07;9.70;99.90
20829;DHT22;10575;50.124;8.582;2023-11-19T04:39:32;9.70;99.90
20829;DHT22;10575;50.124;8.582;2023-11-19T04:41:58;9.80;99.90
20829;DHT22;10575;50.124;8.582;2023-11-19T04:44:24;9.80;99.90
20829;DHT22;10575;50.124;8.582;2023-11-19T04:46:50;9.80;99.90
20829;DHT22;10575;50.124;8.582;2023-11-19T04:49:15;9.90;99.90
20829;DHT22;10575;50.124;8.582;2023-11-19T04:51:45;10.00;99.90
20829;DHT22;10575;50.124;8.582;2023-11-19T04:54:12;9.90;99.90
20829;DHT22;10575;50.124;8.582;2023-11-19T04:56:38;9.90;99.90
20829;DHT22;10575;50.124;8.582;2023-11-19T04:59:05;9.90;99.90
20829;DHT22;10575;50.124;8.582;2023-11-19T05:01:32;9.90;99.90
20829;DHT22;10575;50.124;8.582;2023-11-19T05:03:57;9.90;99.90
20829;DHT22;10575;50.124;8.582;2023-11-19T05:06:26;9.80;99.90
20829;DHT22;10575;50.124;8.582;2023-11-19T05:08:52;9.80;99.90
20829;DHT22;10575;50.124;8.582;2023-11-19T05:11:17;9.80;99.90
20829;DHT22;10575;50.124;8.582;2023-11-19T05:13:45;9.80;99.90
20829;DHT22;10575;50.124;8.582;2023-11-19T05:16:10;9.80;99.90
20829;DHT22;10575;50.124;8.582;2023-11-19T05:18:36;9.80;99.90
20829;DHT22;10575;50.124;8.582;2023-11-19T05:21:01;9.80;99.90
20829;DHT22;10575;50.124;8.582;2023-11-19T05:23:27;9.80;99.90
20829;DHT22;10575;50.124;8.582;2023-11-19T05:25:53;9.90;99.90
20829;DHT22;10575;50.124;8.582;2023-11-19T05:28:18;10.00;99.90
20829;DHT22;10575;50.124;8.582;2023-11-19T05:30:44;9.90;99.90
20829;DHT22;10575;50.124;8.582;2023-11-19T05:33:10;9.90;99.90
20829;DHT22;10575;50.124;8.582;2023-11-19T05:35:36;9.90;99.90
20829;DHT22;10575;50.124;8.582;2023-11-19T05:38:01;10.00;99.90
20829;DHT22;10575;50.124;8.582;2023-11-19T05:40:28;10.00;99.90
20829;DHT22;10575;50.124;8.582;2023-11-19T05:42:53;10.00;99.90
20829;DHT22;10575;50.124;8.582;2023-11-19T05:45:19;10.00;99.90
20829;DHT22;10575;50.124;8.582;2023-11-19T05:47:46;10.00;99.90
20829;DHT22;10575;50.124;8.582;2023-11-19T05:50:12;10.00;99.90
20829;DHT22;10575;50.124;8.582;2023-11-19T05:52:37;10.00;99.90
20829;DHT22;10575;50.124;8.582;2023-11-19T05:55:03;9.90;99.90
20829;DHT22;10575;50.124;8.582;2023-11-19T05:57:36;10.00;99.90
20829;DHT22;10575;50.124;8.582;2023-11-19T06:00:05;9.90;99.90
20829;DHT22;10575;50.124;8.582;2023-11-19T06:02:32;9.90;99.90
20829;DHT22;10575;50.124;8.582;2023-11-19T06:04:58;9.90;99.90
20829;DHT22;10575;50.124;8.582;2023-11-19T06:07:23;9.90;99.90
20829;DHT22;10575;50.124;8.582;2023-11-19T06:09:50;9.90;99.90
20829;DHT22;10575;50.124;8.582;2023-11-19T06:12:15;9.90;99.90
20829;DHT22;10575;50.124;8.582;2023-11-19T06:14:41;9.90;99.90
20829;DHT22;10575;50.124;8.582;2023-11-19T06:17:06;9.90;99.90
20829;DHT22;10575;50.124;8.582;2023-11-19T06:19:33;10.00;99.90
20829;DHT22;10575;50.124;8.582;2023-11-19T06:21:59;9.90;99.90
20829;DHT22;10575;50.124;8.582;2023-11-19T06:24:25;10.00;99.90
20829;DHT22;10575;50.124;8.582;2023-11-19T06:26:50;10.00;99.90
20829;DHT22;10575;50.124;8.582;2023-11-19T06:29:19;10.10;99.90
20829;DHT22;10575;50.124;8.582;2023-11-19T06:31:45;10.10;99.90
20829;DHT22;10575;50.124;8.582;2023-11-19T06:34:12;10.10;99.90
20829;DHT22;10575;50.124;8.582;2023-11-19T06:36:37;10.00;99.90
20829;DHT22;10575;50.124;8.582;2023-11-19T06:39:05;10.10;99.90
20829;DHT22;10575;50.124;8.582;2023-11-19T06:41:31;10.00;99.90
20829;DHT22;10575;50.124;8.582;2023-11-19T06:43:57;10.10;99.90
20829;DHT22;10575;50.124;8.582;2023-11-19T06:46:22;10.10;99.90
20829;DHT22;10575;50.124;8.582;2023-11-19T06:48:48;10.00;99.90
20829;DHT22;10575;50.124;8.582;2023-11-19T06:51:13;10.00;99.90
20829;DHT22;10575;50.124;8.582;2023-11-19T06:53:39;10.00;99.90
20829;DHT22;10575;50.124;8.582;2023-11-19T06:56:10;10.10;99.90
20829;DHT22;10575;50.124;8.582;2023-11-19T06:58:42;10.10;99.90
20829;DHT22;10575;50.124;8.582;2023-11-19T07:01:08;10.10;99.90
20829;DHT22;10575;50.124;8.582;2023-11-19T07:03:35;10.10;99.90
20829;DHT22;10575;50.124;8.582;2023-11-19T07:06:00;10.00;99.90
20829;DHT22;10575;50.124;8.582;2023-11-19T07:08:26;10.00;99.90
20829;DHT22;10575;50.124;8.582;2023-11-19T07:10:52;10.10;99.90
20829;DHT22;10575;50.124;8.582;2023-11-19T07:13:17;10.10;99.90
20829;DHT22;10575;50.124;8.582;2023-11-19T07:15:44;10.20;99.90
20829;DHT22;10575;50.124;8.582;2023-11-19T07:18:10;10.10;99.90
20829;DHT22;10575;50.124;8.582;2023-11-19T07:20:37;10.20;99.90
20829;DHT22;10575;50.124;8.582;2023-11-19T07:23:03;10.20;99.90
20829;DHT22;10575;50.124;8.582;2023-11-19T07:25:29;10.30;99.90
20829;DHT22;10575;50.124;8.582;2023-11-19T07:27:54;10.30;99.90
20829;DHT22;10575;50.124;8.582;2023-11-19T07:30:20;10.30;99.90
20829;DHT22;10575;50.124;8.582;2023-11-19T07:32:45;10.40;99.90
20829;DHT22;10575;50.124;8.582;2023-11-19T07:35:11;10.40;99.90
20829;DHT22;10575;50.124;8.582;2023-11-19T07:37:37;10.30;99.90
20829;DHT22;10575;50.124;8.582;2023-11-19T07:40:02;10.30;99.90
20829;DHT22;10575;50.124;8.582;2023-11-19T07:42:28;10.40;99.90
20829;DHT22;10575;50.124;8.582;2023-11-19T07:44:54;10.30;99.90
20829;DHT22;10575;50.124;8.582;2023-11-19T07:47:21;10.40;99.90
20829;DHT22;10575;50.124;8.582;2023-11-19T07:49:50;10.30;99.90
20829;DHT22;10575;50.124;8.582;2023-11-19T07:52:15;10.40;99.90
20829;DHT22;10575;50.124;8.582;2023-11-19T07:54:41;10.40;99.90
20829;DHT22;10575;50.124;8.582;2023-11-19T07:57:06;10.40;99.90
20829;DHT22;10575;50.124;8.582;2023-11-19T07:59:32;10.40;99.90
20829;DHT22;10575;50.124;8.582;2023-11-19T08:01:57;10.40;99.90
20829;DHT22;10575;50.124;8.582;2023-11-19T08:04:23;10.40;99.90
20829;DHT22;10575;50.124;8.582;2023-11-19T08:06:49;10.50;99.90
20829;DHT22;10575;50.124;8.582;2023-11-19T08:09:14;10.60;99.90
20829;DHT22;10575;50.124;8.582;2023-11-19T08:11:41;10.70;99.90
20829;DHT22;10575;50.124;8.582;2023-11-19T08:14:06;10.70;99.90
20829;DHT22;10575;50.124;8.582;2023-11-19T08:16:32;10.70;99.90
20829;DHT22;10575;50.124;8.582;2023-11-19T08:18:57;10.70;99.90
20829;DHT22;10575;50.124;8.582;2023-11-19T08:21:23;10.80;99.90
20829;DHT22;10575;50.124;8.582;2023-11-19T08:23:49;10.90;99.90
20829;DHT22;10575;50.124;8.582;2023-11-19T08:26:15;10.90;99.90
20829;DHT22;10575;50.124;8.582;2023-11-19T08:28:41;10.90;99.90
20829;DHT22;10575;50.124;8.582;2023-11-19T08:31:06;10.90;99.90
20829;DHT22;10575;50.124;8.582;2023-11-19T08:33:32;10.90;99.90
20829;DHT22;10575;50.124;8.582;2023-11-19T08:35:58;10.80;99.90
20829;DHT22;10575;50.124;8.582;2023-11-19T08:38:24;10.80;99.90
20829;DHT22;10575;50.124;8.582;2023-11-19T08:40:50;10.80;99.90
20829;DHT22;10575;50.124;8.582;2023-11-19T08:43:16;10.80;99.90
20829;DHT22;10575;50.124;8.582;2023-11-19T08:45:41;10.90;99.90
20829;DHT22;10575;50.124;8.582;2023-11-19T08:48:07;11.00;99.90
20829;DHT22;10575;50.124;8.582;2023-11-19T08:50:32;11.10;99.90
20829;DHT22;10575;50.124;8.582;2023-11-19T08:52:58;11.10;99.90
20829;DHT22;10575;50.124;8.582;2023-11-19T08:55:23;11.20;99.90
20829;DHT22;10575;50.124;8.582;2023-11-19T08:57:49;11.20;99.90
20829;DHT22;10575;50.124;8.582;2023-11-19T09:00:14;11.40;99.90
20829;DHT22;10575;50.124;8.582;2023-11-19T09:02:40;11.60;99.90
20829;DHT22;10575;50.124;8.582;2023-11-19T09:05:06;11.50;99.90
20829;DHT22;10575;50.124;8.582;2023-11-19T09:07:33;11.50;99.90
20829;DHT22;10575;50.124;8.582;2023-11-19T09:09:59;11.50;99.90
20829;DHT22;10575;50.124;8.582;2023-11-19T09:12:24;11.70;99.90
20829;DHT22;10575;50.124;8.582;2023-11-19T09:14:50;11.80;99.90
20829;DHT22;10575;50.124;8.582;2023-11-19T09:17:15;11.80;99.90
20829;DHT22;10575;50.124;8.582;2023-11-19T09:19:42;11.70;99.90
20829;DHT22;10575;50.124;8.582;2023-11-19T09:22:08;11.80;99.90
20829;DHT22;10575;50.124;8.582;2023-11-19T09:24:33;11.80;99.90
20829;DHT22;10575;50.124;8.582;2023-11-19T09:26:59;11.90;99.90
20829;DHT22;10575;50.124;8.582;2023-11-19T09:29:25;11.90;99.90
20829;DHT22;10575;50.124;8.582;2023-11-19T09:31:51;12.00;99.90
20829;DHT22;10575;50.124;8.582;2023-11-19T09:34:16;12.10;99.90
20829;DHT22;10575;50.124;8.582;2023-11-19T09:36:42;12.20;99.90
20829;DHT22;10575;50.124;8.582;2023-11-19T09:39:10;12.20;99.90
20829;DHT22;10575;50.124;8.582;2023-11-19T09:41:36;12.30;99.90
20829;DHT22;10575;50.124;8.582;2023-11-19T09:44:01;12.50;99.90
20829;DHT22;10575;50.124;8.582;2023-11-19T09:46:28;12.60;99.90
20829;DHT22;10575;50.124;8.582;2023-11-19T09:48:56;12.70;99.90
20829;DHT22;10575;50.124;8.582;2023-11-19T09:51:23;12.70;99.90
20829;DHT22;10575;50.124;8.582;2023-11-19T09:53:49;12.90;99.90
20829;DHT22;10575;50.124;8.582;2023-11-19T09:56:15;13.00;99.90
20829;DHT22;10575;50.124;8.582;2023-11-19T09:58:42;13.10;99.90
20829;DHT22;10575;50.124;8.582;2023-11-19T10:01:08;13.10;99.90
20829;DHT22;10575;50.124;8.582;2023-11-19T10:03:37;13.00;99.90
20829;DHT22;10575;50.124;8.582;2023-11-19T10:06:07;13.10;99.90
20829;DHT22;10575;50.124;8.582;2023-11-19T10:08:33;13.00;99.90
20829;DHT22;10575;50.124;8.582;2023-11-19T10:10:58;13.00;99.90
20829;DHT22;10575;50.124;8.582;2023-11-19T10:13:30;13.10;99.90
20829;DHT22;10575;50.124;8.582;2023-11-19T10:15:56;13.10;99.90
20829;DHT22;10575;50.124;8.582;2023-11-19T10:18:28;13.10;99.90
20829;DHT22;10575;50.124;8.582;2023-11-19T10:20:53;13.30;99.90
20829;DHT22;10575;50.124;8.582;2023-11-19T10:23:20;13.40;99.90
20829;DHT22;10575;50.124;8.582;2023-11-19T10:25:46;13.30;99.90
20829;DHT22;10575;50.124;8.582;2023-11-19T10:28:11;13.30;99.90
20829;DHT22;10575;50.124;8.582;2023-11-19T10:30:41;13.20;99.90
20829;DHT22;10575;50.124;8.582;2023-11-19T10:33:11;13.20;99.90
20829;DHT22;10575;50.124;8.582;2023-11-19T10:35:52;13.10;99.90
20829;DHT22;10575;50.124;8.582;2023-11-19T10:38:27;13.10;99.90
20829;DHT22;10575;50.124;8.582;2023-11-19T10:40:55;13.10;99.90
20829;DHT22;10575;50.124;8.582;2023-11-19T10:43:21;13.10;99.90
20829;DHT22;10575;50.124;8.582;2023-11-19T10:45:50;13.10;99.90
20829;DHT22;10575;50.124;8.582;2023-11-19T10:48:16;13.20;99.90
20829;DHT22;10575;50.124;8.582;2023-11-19T10:50:43;13.20;99.90
20829;DHT22;10575;50.124;8.582;2023-11-19T10:53:11;13.30;99.90
20829;DHT22;10575;50.124;8.582;2023-11-19T10:55:38;13.40;99.90
20829;DHT22;10575;50.124;8.582;2023-11-19T10:58:10;13.50;99.90
20829;DHT22;10575;50.124;8.582;2023-11-19T11:00:57;13.50;99.90
20829;DHT22;10575;50.124;8.582;2023-11-19T11:03:25;13.30;99.90
20829;DHT22;10575;50.124;8.582;2023-11-19T11:05:53;13.30;99.90
20829;DHT22;10575;50.124;8.582;2023-11-19T11:08:20;13.20;99.90
20829;DHT22;10575;50.124;8.582;2023-11-19T11:10:55;13.20;99.90
20829;DHT22;10575;50.124;8.582;2023-11-19T11:13:22;13.10;99.90
20829;DHT22;10575;50.124;8.582;2023-11-19T11:15:48;13.10;99.90
20829;DHT22;10575;50.124;8.582;2023-11-19T11:18:14;13.00;99.90
20829;DHT22;10575;50.124;8.582;2023-11-19T11:20:40;13.00;99.90
20829;DHT22;10575;50.124;8.582;2023-11-19T11:29:00;13.00;99.90
20829;DHT22;10575;50.124;8.582;2023-11-19T11:34:52;13.10;99.90
20829;DHT22;10575;50.124;8.582;2023-11-19T11:37:41;13.10;99.90
20829;DHT22;10575;50.124;8.582;2023-11-19T11:40:17;13.00;99.90
20829;DHT22;10575;50.124;8.582;2023-11-19T11:42:44;13.00;99.90
20829;DHT22;10575;50.124;8.582;2023-11-19T11:45:12;12.90;99.90
20829;DHT22;10575;50.124;8.582;2023-11-19T11:50:20;12.80;99.90
20829;DHT22;10575;50.124;8.582;2023-11-19T11:55:34;12.80;99.90
20829;DHT22;10575;50.124;8.582;2023-11-19T11:58:00;12.90;99.90
20829;DHT22;10575;50.124;8.582;2023-11-19T12:00:32;12.90;99.90
20829;DHT22;10575;50.124;8.582;2023-11-19T12:03:04;12.90;99.90
20829;DHT22;10575;50.124;8.582;2023-11-19T12:05:31;12.90;99.90
20829;DHT22;10575;50.124;8.582;2023-11-19T12:08:04;12.90;99.90
20829;DHT22;10575;50.124;8.582;2023-11-19T12:10:36;12.90;99.90
20829;DHT22;10575;50.124;8.582;2023-11-19T12:13:05;12.90;99.90
20829;DHT22;10575;50.124;8.582;2023-11-19T12:15:32;12.90;99.90
20829;DHT22;10575;50.124;8.582;2023-11-19T12:17:59;12.90;99.90
20829;DHT22;10575;50.124;8.582;2023-11-19T12:20:26;13.00;99.90
20829;DHT22;10575;50.124;8.582;2023-11-19T12:22:53;12.90;99.90
20829;DHT22;10575;50.124;8.582;2023-11-19T12:25:19;12.80;99.90
20829;DHT22;10575;50.124;8.582;2023-11-19T12:27:50;12.80;99.90
20829;DHT22;10575;50.124;8.582;2023-11-19T12:30:23;12.90;99.90
20829;DHT22;10575;50.124;8.582;2023-11-19T12:32:49;12.90;99.90
20829;DHT22;10575;50.124;8.582;2023-11-19T12:35:15;13.00;99.90
20829;DHT22;10575;50.124;8.582;2023-11-19T12:37:42;13.00;99.90
20829;DHT22;10575;50.124;8.582;2023-11-19T12:40:15;13.10;99.90
20829;DHT22;10575;50.124;8.582;2023-11-19T12:42:43;13.10;99.90
20829;DHT22;10575;50.124;8.582;2023-11-19T12:45:08;13.20;99.90
20829;DHT22;10575;50.124;8.582;2023-11-19T12:47:36;13.20;99.90
20829;DHT22;10575;50.124;8.582;2023-11-19T12:50:02;13.30;99.90
20829;DHT22;10575;50.124;8.582;2023-11-19T12:52:30;13.30;99.90
20829;DHT22;10575;50.124;8.582;2023-11-19T12:54:55;13.20;99.90
20829;DHT22;10575;50.124;8.582;2023-11-19T12:57:38;13.30;99.90
20829;DHT22;10575;50.124;8.582;2023-11-19T13:00:05;13.40;99.90
20829;DHT22;10575;50.124;8.582;2023-11-19T13:02:45;13.30;99.90
20829;DHT22;10575;50.124;8.582;2023-11-19T13:05:32;13.30;99.90
20829;DHT22;10575;50.124;8.582;2023-11-19T13:08:09;13.30;99.90
20829;DHT22;10575;50.124;8.582;2023-11-19T13:10:53;13.30;99.90
20829;DHT22;10575;50.124;8.582;2023-11-19T13:13:21;13.30;99.90
20829;DHT22;10575;50.124;8.582;2023-11-19T13:15:47;13.30;99.90
20829;DHT22;10575;50.124;8.582;2023-11-19T13:18:16;13.30;99.90
20829;DHT22;10575;50.124;8.582;2023-11-19T13:20:41;13.30;99.90
20829;DHT22;10575;50.124;8.582;2023-11-19T13:23:08;13.30;99.90
20829;DHT22;10575;50.124;8.582;2023-11-19T13:25:34;13.30;99.90
20829;DHT22;10575;50.124;8.582;2023-11-19T13:28:00;13.20;99.90
20829;DHT22;10575;50.124;8.582;2023-11-19T13:30:26;13.20;99.90
20829;DHT22;10575;50.124;8.582;2023-11-19T13:32:52;13.10;99.90
20829;DHT22;10575;50.124;8.582;2023-11-19T13:35:19;13.00;99.90
20829;DHT22;10575;50.124;8.582;2023-11-19T13:37:45;13.00;99.90
20829;DHT22;10575;50.124;8.582;2023-11-19T13:40:12;13.00;99.90
20829;DHT22;10575;50.124;8.582;2023-11-19T13:42:44;13.00;99.90
20829;DHT22;10575;50.124;8.582;2023-11-19T13:45:13;13.10;99.90
20829;DHT22;10575;50.124;8.582;2023-11-19T13:47:41;13.10;99.90
20829;DHT22;10575;50.124;8.582;2023-11-19T13:50:14;13.10;99.90
20829;DHT22;10575;50.124;8.582;2023-11-19T13:52:41;13.10;99.90
20829;DHT22;10575;50.124;8.582;2023-11-19T13:55:09;13.00;99.90
20829;DHT22;10575;50.124;8.582;2023-11-19T13:57:40;13.00;99.90
20829;DHT22;10575;50.124;8.582;2023-11-19T14:00:07;13.00;99.90
20829;DHT22;10575;50.124;8.582;2023-11-19T14:02:45;13.00;99.90
20829;DHT22;10575;50.124;8.582;2023-11-19T14:05:12;12.90;99.90
20829;DHT22;10575;50.124;8.582;2023-11-19T14:07:41;12.90;99.90
20829;DHT22;10575;50.124;8.582;2023-11-19T14:10:07;12.90;99.90
20829;DHT22;10575;50.124;8.582;2023-11-19T14:12:34;12.90;99.90
20829;DHT22;10575;50.124;8.582;2023-11-19T14:15:01;12.90;99.90
20829;DHT22;10575;50.124;8.582;2023-11-19T14:17:26;13.00;99.90
20829;DHT22;10575;50.124;8.582;2023-11-19T14:19:52;13.00;99.90
20829;DHT22;10575;50.124;8.582;2023-11-19T14:22:17;12.90;99.90
20829;DHT22;10575;50.124;8.582;2023-11-19T14:24:43;13.00;99.90
20829;DHT22;10575;50.124;8.582;2023-11-19T14:27:09;12.90;99.90
20829;DHT22;10575;50.124;8.582;2023-11-19T14:29:35;12.90;99.90
20829;DHT22;10575;50.124;8.582;2023-11-19T14:32:02;12.90;99.90
20829;DHT22;10575;50.124;8.582;2023-11-19T14:34:31;12.90;99.90
20829;DHT22;10575;50.124;8.582;2023-11-19T14:36:58;12.90;99.90
20829;DHT22;10575;50.124;8.582;2023-11-19T14:39:23;12.80;99.90
20829;DHT22;10575;50.124;8.582;2023-11-19T14:41:49;12.80;99.90
20829;DHT22;10575;50.124;8.582;2023-11-19T14:44:16;12.70;99.90
20829;DHT22;10575;50.124;8.582;2023-11-19T14:46:41;12.60;99.90
20829;DHT22;10575;50.124;8.582;2023-11-19T14:49:07;12.60;99.90
20829;DHT22;10575;50.124;8.582;2023-11-19T14:51:36;12.50;99.90
20829;DHT22;10575;50.124;8.582;2023-11-19T14:54:02;12.40;99.90
20829;DHT22;10575;50.124;8.582;2023-11-19T14:56:28;12.40;99.90
20829;DHT22;10575;50.124;8.582;2023-11-19T14:58:53;12.30;99.90
20829;DHT22;10575;50.124;8.582;2023-11-19T15:01:19;12.40;99.90
20829;DHT22;10575;50.124;8.582;2023-11-19T15:03:44;12.30;99.90
20829;DHT22;10575;50.124;8.582;2023-11-19T15:06:10;12.30;99.90
20829;DHT22;10575;50.124;8.582;2023-11-19T15:08:36;12.20;99.90
20829;DHT22;10575;50.124;8.582;2023-11-19T15:11:02;12.20;99.90
20829;DHT22;10575;50.124;8.582;2023-11-19T15:13:30;12.20;99.90
20829;DHT22;10575;50.124;8.582;2023-11-19T15:15:56;12.20;99.90
20829;DHT22;10575;50.124;8.582;2023-11-19T15:18:22;12.10;99.90
20829;DHT22;10575;50.124;8.582;2023-11-19T15:20:48;12.00;99.90
20829;DHT22;10575;50.124;8.582;2023-11-19T15:23:14;11.90;99.90
20829;DHT22;10575;50.124;8.582;2023-11-19T15:25:40;11.80;99.90
20829;DHT22;10575;50.124;8.582;2023-11-19T15:28:07;11.80;99.90
20829;DHT22;10575;50.124;8.582;2023-11-19T15:30:32;11.70;99.90
20829;DHT22;10575;50.124;8.582;2023-11-19T15:32:58;11.70;99.90
20829;DHT22;10575;50.124;8.582;2023-11-19T15:35:23;11.60;99.90
20829;DHT22;10575;50.124;8.582;2023-11-19T15:37:49;11.60;99.90
20829;DHT22;10575;50.124;8.582;2023-11-19T15:40:14;11.60;99.90
20829;DHT22;10575;50.124;8.582;2023-11-19T15:42:41;11.60;99.90
20829;DHT22;10575;50.124;8.582;2023-11-19T15:45:09;11.60;99.90
20829;DHT22;10575;50.124;8.582;2023-11-19T15:47:34;11.50;99.90
20829;DHT22;10575;50.124;8.582;2023-11-19T15:50:03;11.50;99.90
20829;DHT22;10575;50.124;8.582;2023-11-19T15:52:29;11.50;99.90